sensor_id;sensor_type;location;lat;lon;timestamp;pressure;altitude;pressure_sealevel;temperature;humidity
55733;BME280;41637;52.364;9.910;2023-08-31T09:46:16;100138.53;;;21.76;64.56
55733;BME280;41637;52.364;9.910;2023-08-31T09:52:10;100141.28;;;21.81;63.86
55733;BME280;41637;52.364;9.910;2023-08-31T09:54:37;100133.75;;;21.88;63.79
55733;BME280;41637;52.364;9.910;2023-08-31T09:58:00;100135.94;;;21.96;63.05
55733;BME280;41637;52.364;9.910;2023-08-31T10:00:41;100141.91;;;22.04;63.06
55733;BME280;41637;52.364;9.910;2023-08-31T10:03:09;100152.75;;;22.09;62.73
55733;BME280;41637;52.364;9.910;2023-08-31T10:05:46;100138.19;;;22.15;62.92
55733;BME280;41637;52.364;9.910;2023-08-31T10:08:14;100145.47;;;22.19;62.32
55733;BME280;41637;52.364;9.910;2023-08-31T10:10:42;100142.00;;;22.24;62.15
55733;BME280;41637;52.364;9.910;2023-08-31T10:13:10;100147.44;;;22.29;61.67
55733;BME280;41637;52.364;9.910;2023-08-31T10:15:38;100142.03;;;22.34;61.84
55733;BME280;41637;52.364;9.910;2023-08-31T10:18:07;100130.16;;;22.41;61.72
55733;BME280;41637;52.364;9.910;2023-08-31T10:24:58;100148.03;;;21.36;54.86
55733;BME280;41637;52.364;9.910;2023-08-31T10:27:27;100149.16;;;20.75;55.95
55733;BME280;41637;52.364;9.910;2023-08-31T10:29:54;100147.88;;;20.56;55.42
55733;BME280;41637;52.364;9.910;2023-08-31T10:32:20;100143.06;;;20.09;57.46
55733;BME280;41637;52.364;9.910;2023-08-31T10:35:05;100152.22;;;19.69;58.66
55733;BME280;41637;52.364;9.910;2023-08-31T10:37:32;100149.22;;;19.48;58.33
55733;BME280;41637;52.364;9.910;2023-08-31T10:40:09;100147.47;;;19.37;59.59
55733;BME280;41637;52.364;9.910;2023-08-31T10:42:43;100154.72;;;19.37;58.74
55733;BME280;41637;52.364;9.910;2023-08-31T10:45:10;100153.19;;;19.24;59.78
55733;BME280;41637;52.364;9.910;2023-08-31T10:47:41;100147.72;;;19.19;60.26
55733;BME280;41637;52.364;9.910;2023-08-31T10:50:21;100139.34;;;19.15;59.47
55733;BME280;41637;52.364;9.910;2023-08-31T10:52:48;100142.84;;;19.15;60.55
55733;BME280;41637;52.364;9.910;2023-08-31T10:55:15;100154.91;;;19.13;60.78
55733;BME280;41637;52.364;9.910;2023-08-31T10:57:43;100151.31;;;19.07;60.51
55733;BME280;41637;52.364;9.910;2023-08-31T11:00:10;100152.44;;;18.94;59.86
55733;BME280;41637;52.364;9.910;2023-08-31T11:02:43;100145.94;;;18.90;59.34
55733;BME280;41637;52.364;9.910;2023-08-31T11:05:15;100151.97;;;18.81;59.18
55733;BME280;41637;52.364;9.910;2023-08-31T11:07:47;100139.97;;;18.88;59.89
55733;BME280;41637;52.364;9.910;2023-08-31T11:10:21;100154.91;;;18.96;59.80
55733;BME280;41637;52.364;9.910;2023-08-31T11:12:55;100159.22;;;18.97;59.94
55733;BME280;41637;52.364;9.910;2023-08-31T11:15:25;100153.03;;;18.97;59.04
55733;BME280;41637;52.364;9.910;2023-08-31T11:17:58;100142.09;;;19.03;59.97
55733;BME280;41637;52.364;9.910;2023-08-31T11:20:25;100143.25;;;19.07;59.64
55733;BME280;41637;52.364;9.910;2023-08-31T11:22:55;100159.22;;;18.97;59.70
55733;BME280;41637;52.364;9.910;2023-08-31T11:25:23;100142.03;;;18.98;61.40
55733;BME280;41637;52.364;9.910;2023-08-31T11:27:55;100141.06;;;19.04;60.73
55733;BME280;41637;52.364;9.910;2023-08-31T11:30:24;100150.50;;;19.07;59.92
55733;BME280;41637;52.364;9.910;2023-08-31T11:32:52;100146.09;;;19.18;59.95
55733;BME280;41637;52.364;9.910;2023-08-31T11:35:22;100139.81;;;19.29;58.34
55733;BME280;41637;52.364;9.910;2023-08-31T11:37:51;100147.03;;;19.62;58.97
55733;BME280;41637;52.364;9.910;2023-08-31T11:40:19;100131.50;;;19.69;55.38
55733;BME280;41637;52.364;9.910;2023-08-31T11:42:48;100135.69;;;19.77;55.68
55733;BME280;41637;52.364;9.910;2023-08-31T11:45:15;100134.47;;;20.12;57.00
55733;BME280;41637;52.364;9.910;2023-08-31T11:47:42;100144.88;;;20.52;55.43
55733;BME280;41637;52.364;9.910;2023-08-31T11:50:11;100147.56;;;20.74;53.59
55733;BME280;41637;52.364;9.910;2023-08-31T11:52:40;100145.91;;;20.73;52.16
55733;BME280;41637;52.364;9.910;2023-08-31T11:55:15;100138.88;;;21.00;52.21
55733;BME280;41637;52.364;9.910;2023-08-31T11:57:51;100143.00;;;21.12;52.04
55733;BME280;41637;52.364;9.910;2023-08-31T12:00:19;100142.97;;;21.07;51.76
55733;BME280;41637;52.364;9.910;2023-08-31T12:03:00;100150.41;;;20.95;50.11
55733;BME280;41637;52.364;9.910;2023-08-31T12:05:28;100135.50;;;21.20;51.05
55733;BME280;41637;52.364;9.910;2023-08-31T12:07:56;100141.09;;;21.45;49.67
55733;BME280;41637;52.364;9.910;2023-08-31T12:10:26;100139.13;;;21.83;48.69
55733;BME280;41637;52.364;9.910;2023-08-31T12:12:54;100145.75;;;22.13;48.09
55733;BME280;41637;52.364;9.910;2023-08-31T12:15:22;100138.03;;;22.57;47.16
55733;BME280;41637;52.364;9.910;2023-08-31T12:17:50;100139.97;;;23.08;46.21
55733;BME280;41637;52.364;9.910;2023-08-31T12:20:25;100140.78;;;23.29;43.54
55733;BME280;41637;52.364;9.910;2023-08-31T12:22:53;100136.09;;;23.76;42.18
55733;BME280;41637;52.364;9.910;2023-08-31T12:25:21;100151.13;;;24.02;42.53
55733;BME280;41637;52.364;9.910;2023-08-31T12:27:48;100156.63;;;23.67;41.11
55733;BME280;41637;52.364;9.910;2023-08-31T12:30:15;100139.38;;;24.67;39.73
55733;BME280;41637;52.364;9.910;2023-08-31T12:32:42;100156.50;;;26.28;37.44
55733;BME280;41637;52.364;9.910;2023-08-31T12:35:09;100154.16;;;27.71;34.70
55733;BME280;41637;52.364;9.910;2023-08-31T12:37:37;100137.38;;;29.23;32.71
55733;BME280;41637;52.364;9.910;2023-08-31T12:40:05;100128.22;;;30.34;30.80
55733;BME280;41637;52.364;9.910;2023-08-31T12:42:33;100140.47;;;30.63;29.71
55733;BME280;41637;52.364;9.910;2023-08-31T12:45:00;100136.44;;;30.43;30.16
55733;BME280;41637;52.364;9.910;2023-08-31T12:47:27;100145.97;;;29.39;31.33
55733;BME280;41637;52.364;9.910;2023-08-31T12:49:54;100157.13;;;28.53;32.94
55733;BME280;41637;52.364;9.910;2023-08-31T12:52:21;100154.41;;;28.39;32.83
55733;BME280;41637;52.364;9.910;2023-08-31T12:54:47;100155.97;;;27.62;33.52
55733;BME280;41637;52.364;9.910;2023-08-31T12:57:14;100166.91;;;26.82;34.99
55733;BME280;41637;52.364;9.910;2023-08-31T12:59:41;100155.75;;;26.22;36.62
55733;BME280;41637;52.364;9.910;2023-08-31T13:02:08;100174.13;;;25.63;38.22
55733;BME280;41637;52.364;9.910;2023-08-31T13:04:38;100168.88;;;25.13;37.90
55733;BME280;41637;52.364;9.910;2023-08-31T13:07:07;100160.56;;;24.65;39.60
55733;BME280;41637;52.364;9.910;2023-08-31T13:09:33;100162.19;;;24.16;39.82
55733;BME280;41637;52.364;9.910;2023-08-31T13:12:00;100165.31;;;23.74;40.91
55733;BME280;41637;52.364;9.910;2023-08-31T13:14:27;100164.44;;;24.54;41.60
55733;BME280;41637;52.364;9.910;2023-08-31T13:16:54;100167.34;;;25.36;39.24
55733;BME280;41637;52.364;9.910;2023-08-31T13:19:22;100150.69;;;27.24;35.69
55733;BME280;41637;52.364;9.910;2023-08-31T13:21:49;100162.13;;;27.07;34.87
55733;BME280;41637;52.364;9.910;2023-08-31T13:24:16;100175.97;;;27.71;35.02
55733;BME280;41637;52.364;9.910;2023-08-31T13:26:43;100169.59;;;27.01;35.01
55733;BME280;41637;52.364;9.910;2023-08-31T13:29:14;100188.59;;;26.07;36.56
55733;BME280;41637;52.364;9.910;2023-08-31T13:31:41;100175.31;;;25.22;38.04
55733;BME280;41637;52.364;9.910;2023-08-31T13:34:08;100174.41;;;24.64;39.49
55733;BME280;41637;52.364;9.910;2023-08-31T13:36:36;100176.13;;;23.89;41.45
55733;BME280;41637;52.364;9.910;2023-08-31T13:39:02;100189.19;;;23.46;42.59
55733;BME280;41637;52.364;9.910;2023-08-31T13:41:30;100181.56;;;22.66;43.43
55733;BME280;41637;52.364;9.910;2023-08-31T13:43:57;100206.78;;;22.14;45.56
55733;BME280;41637;52.364;9.910;2023-08-31T13:46:24;100197.84;;;21.61;44.66
55733;BME280;41637;52.364;9.910;2023-08-31T13:48:51;100193.28;;;21.29;43.60
55733;BME280;41637;52.364;9.910;2023-08-31T13:51:17;100196.31;;;21.00;44.44
55733;BME280;41637;52.364;9.910;2023-08-31T13:53:45;100225.03;;;20.62;46.11
55733;BME280;41637;52.364;9.910;2023-08-31T13:56:11;100207.00;;;20.41;47.55
55733;BME280;41637;52.364;9.910;2023-08-31T13:58:38;100215.91;;;20.19;49.12
55733;BME280;41637;52.364;9.910;2023-08-31T14:01:05;100206.94;;;19.91;49.83
55733;BME280;41637;52.364;9.910;2023-08-31T14:03:32;100220.25;;;19.64;50.55
55733;BME280;41637;52.364;9.910;2023-08-31T14:05:59;100232.63;;;19.48;53.84
55733;BME280;41637;52.364;9.910;2023-08-31T14:08:25;100254.69;;;19.17;56.11
55733;BME280;41637;52.364;9.910;2023-08-31T14:10:53;100256.03;;;18.85;60.71
55733;BME280;41637;52.364;9.910;2023-08-31T14:13:21;100268.19;;;18.36;65.48
55733;BME280;41637;52.364;9.910;2023-08-31T14:15:47;100267.88;;;18.08;65.90
55733;BME280;41637;52.364;9.910;2023-08-31T14:18:14;100251.19;;;17.83;66.06
55733;BME280;41637;52.364;9.910;2023-08-31T14:20:42;100268.66;;;17.73;65.03
55733;BME280;41637;52.364;9.910;2023-08-31T14:23:09;100256.34;;;17.84;69.41
55733;BME280;41637;52.364;9.910;2023-08-31T14:25:36;100258.66;;;17.69;68.40
55733;BME280;41637;52.364;9.910;2023-08-31T14:28:05;100261.31;;;17.69;67.04
55733;BME280;41637;52.364;9.910;2023-08-31T14:30:32;100254.91;;;17.70;68.15
55733;BME280;41637;52.364;9.910;2023-08-31T14:32:58;100265.22;;;17.97;67.45
55733;BME280;41637;52.364;9.910;2023-08-31T14:35:25;100244.84;;;18.36;65.14
55733;BME280;41637;52.364;9.910;2023-08-31T14:37:52;100250.09;;;18.71;63.32
55733;BME280;41637;52.364;9.910;2023-08-31T14:40:19;100264.00;;;19.26;60.50
55733;BME280;41637;52.364;9.910;2023-08-31T14:42:46;100260.50;;;19.93;57.66
55733;BME280;41637;52.364;9.910;2023-08-31T14:45:13;100260.16;;;20.50;56.07
55733;BME280;41637;52.364;9.910;2023-08-31T14:47:40;100266.47;;;21.05;54.01
55733;BME280;41637;52.364;9.910;2023-08-31T14:50:07;100267.25;;;21.33;52.77
55733;BME280;41637;52.364;9.910;2023-08-31T14:52:34;100259.53;;;21.14;53.75
55733;BME280;41637;52.364;9.910;2023-08-31T14:55:01;100267.88;;;20.86;53.53
55733;BME280;41637;52.364;9.910;2023-08-31T14:57:30;100291.88;;;20.43;54.25
55733;BME280;41637;52.364;9.910;2023-08-31T14:59:57;100290.50;;;20.02;55.73
55733;BME280;41637;52.364;9.910;2023-08-31T15:02:29;100297.53;;;19.69;56.45
55733;BME280;41637;52.364;9.910;2023-08-31T15:04:56;100297.19;;;19.48;57.17
55733;BME280;41637;52.364;9.910;2023-08-31T15:07:23;100290.06;;;19.25;57.78
55733;BME280;41637;52.364;9.910;2023-08-31T15:09:52;100290.16;;;19.13;58.00
55733;BME280;41637;52.364;9.910;2023-08-31T15:12:18;100296.28;;;18.97;58.39
55733;BME280;41637;52.364;9.910;2023-08-31T15:14:45;100299.03;;;18.73;59.24
55733;BME280;41637;52.364;9.910;2023-08-31T15:17:12;100309.00;;;18.61;59.43
55733;BME280;41637;52.364;9.910;2023-08-31T15:19:41;100302.72;;;18.44;58.33
55733;BME280;41637;52.364;9.910;2023-08-31T15:22:08;100302.19;;;18.30;58.61
55733;BME280;41637;52.364;9.910;2023-08-31T15:24:34;100298.56;;;18.24;58.94
55733;BME280;41637;52.364;9.910;2023-08-31T15:27:03;100297.63;;;18.30;59.31
55733;BME280;41637;52.364;9.910;2023-08-31T15:29:30;100273.56;;;18.36;59.13
55733;BME280;41637;52.364;9.910;2023-08-31T15:31:57;100288.72;;;18.42;59.66
55733;BME280;41637;52.364;9.910;2023-08-31T15:34:26;100289.44;;;18.49;59.58
55733;BME280;41637;52.364;9.910;2023-08-31T15:36:53;100289.75;;;18.52;59.17
55733;BME280;41637;52.364;9.910;2023-08-31T15:39:20;100303.53;;;18.44;58.79
55733;BME280;41637;52.364;9.910;2023-08-31T15:41:48;100295.97;;;18.29;58.25
55733;BME280;41637;52.364;9.910;2023-08-31T15:44:15;100310.34;;;18.23;59.46
55733;BME280;41637;52.364;9.910;2023-08-31T15:46:42;100315.50;;;18.13;59.71
55733;BME280;41637;52.364;9.910;2023-08-31T15:49:09;100343.97;;;18.02;60.75
55733;BME280;41637;52.364;9.910;2023-08-31T15:51:35;100325.41;;;18.01;61.50
55733;BME280;41637;52.364;9.910;2023-08-31T15:54:02;100319.81;;;17.90;61.87
55733;BME280;41637;52.364;9.910;2023-08-31T15:56:31;100322.72;;;17.89;61.99
55733;BME280;41637;52.364;9.910;2023-08-31T15:58:59;100322.84;;;17.94;62.70
55733;BME280;41637;52.364;9.910;2023-08-31T16:01:26;100315.84;;;17.93;63.21
55733;BME280;41637;52.364;9.910;2023-08-31T16:03:53;100321.47;;;17.91;63.28
55733;BME280;41637;52.364;9.910;2023-08-31T16:06:20;100323.31;;;17.91;63.44
55733;BME280;41637;52.364;9.910;2023-08-31T16:08:47;100326.09;;;17.84;63.34
55733;BME280;41637;52.364;9.910;2023-08-31T16:11:13;100311.66;;;17.85;63.91
55733;BME280;41637;52.364;9.910;2023-08-31T16:13:40;100315.38;;;17.84;63.89
55733;BME280;41637;52.364;9.910;2023-08-31T16:16:08;100306.81;;;17.76;64.26
55733;BME280;41637;52.364;9.910;2023-08-31T16:18:35;100312.41;;;17.74;64.71
55733;BME280;41637;52.364;9.910;2023-08-31T16:21:02;100313.00;;;17.76;64.51
55733;BME280;41637;52.364;9.910;2023-08-31T16:23:31;100307.41;;;17.78;65.30
55733;BME280;41637;52.364;9.910;2023-08-31T16:25:58;100305.22;;;17.86;65.40
55733;BME280;41637;52.364;9.910;2023-08-31T16:28:25;100307.19;;;17.91;64.97
55733;BME280;41637;52.364;9.910;2023-08-31T16:30:52;100304.41;;;17.98;65.68
55733;BME280;41637;52.364;9.910;2023-08-31T16:33:19;100302.38;;;18.52;63.91
55733;BME280;41637;52.364;9.910;2023-08-31T16:35:48;100295.91;;;19.68;60.37
55733;BME280;41637;52.364;9.910;2023-08-31T16:38:17;100301.38;;;20.29;58.40
55733;BME280;41637;52.364;9.910;2023-08-31T16:40:44;100292.69;;;20.44;57.84
55733;BME280;41637;52.364;9.910;2023-08-31T16:43:12;100306.97;;;20.22;58.00
55733;BME280;41637;52.364;9.910;2023-08-31T16:45:38;100300.97;;;19.98;58.67
55733;BME280;41637;52.364;9.910;2023-08-31T16:48:06;100302.59;;;19.82;59.80
55733;BME280;41637;52.364;9.910;2023-08-31T16:50:34;100308.41;;;19.74;60.55
55733;BME280;41637;52.364;9.910;2023-08-31T16:53:02;100305.44;;;19.59;60.02
55733;BME280;41637;52.364;9.910;2023-08-31T16:55:30;100311.03;;;19.40;60.56
55733;BME280;41637;52.364;9.910;2023-08-31T16:57:57;100308.00;;;19.20;61.49
55733;BME280;41637;52.364;9.910;2023-08-31T17:00:25;100306.59;;;19.00;61.46
55733;BME280;41637;52.364;9.910;2023-08-31T17:02:52;100314.47;;;18.78;62.42
55733;BME280;41637;52.364;9.910;2023-08-31T17:05:19;100319.75;;;18.61;62.79
55733;BME280;41637;52.364;9.910;2023-08-31T17:07:45;100316.75;;;18.46;64.00
55733;BME280;41637;52.364;9.910;2023-08-31T17:10:12;100316.38;;;18.42;64.81
55733;BME280;41637;52.364;9.910;2023-08-31T17:12:39;100313.78;;;18.59;64.47
55733;BME280;41637;52.364;9.910;2023-08-31T17:15:06;100308.38;;;18.83;63.97
55733;BME280;41637;52.364;9.910;2023-08-31T17:17:36;100302.47;;;19.26;63.15
55733;BME280;41637;52.364;9.910;2023-08-31T17:20:04;100296.09;;;19.78;60.79
55733;BME280;41637;52.364;9.910;2023-08-31T17:22:32;100294.25;;;20.17;59.77
55733;BME280;41637;52.364;9.910;2023-08-31T17:25:00;100298.16;;;20.93;57.46
55733;BME280;41637;52.364;9.910;2023-08-31T17:27:28;100291.34;;;21.72;54.78
55733;BME280;41637;52.364;9.910;2023-08-31T17:29:55;100278.47;;;22.27;52.89
55733;BME280;41637;52.364;9.910;2023-08-31T17:32:22;100277.03;;;22.72;50.49
55733;BME280;41637;52.364;9.910;2023-08-31T17:34:49;100279.56;;;23.04;49.91
55733;BME280;41637;52.364;9.910;2023-08-31T17:37:16;100276.34;;;23.33;48.93
55733;BME280;41637;52.364;9.910;2023-08-31T17:39:43;100280.69;;;23.49;48.39
55733;BME280;41637;52.364;9.910;2023-08-31T17:42:09;100281.22;;;23.51;47.44
55733;BME280;41637;52.364;9.910;2023-08-31T17:44:36;100284.72;;;23.67;47.88
55733;BME280;41637;52.364;9.910;2023-08-31T17:47:03;100292.31;;;23.60;47.61
55733;BME280;41637;52.364;9.910;2023-08-31T17:49:30;100310.97;;;23.20;47.71
55733;BME280;41637;52.364;9.910;2023-08-31T17:51:57;100304.34;;;22.75;48.68
55733;BME280;41637;52.364;9.910;2023-08-31T17:54:24;100311.72;;;22.27;49.79
55733;BME280;41637;52.364;9.910;2023-08-31T17:56:51;100315.03;;;21.65;50.71
55733;BME280;41637;52.364;9.910;2023-08-31T17:59:17;100326.31;;;21.02;52.19
55733;BME280;41637;52.364;9.910;2023-08-31T18:01:44;100322.69;;;20.30;53.31
55733;BME280;41637;52.364;9.910;2023-08-31T18:04:12;100338.41;;;19.66;55.78
55733;BME280;41637;52.364;9.910;2023-08-31T18:06:39;100336.22;;;19.05;57.08
55733;BME280;41637;52.364;9.910;2023-08-31T18:09:06;100329.94;;;18.47;58.00
55733;BME280;41637;52.364;9.910;2023-08-31T18:11:35;100340.72;;;18.00;59.57
55733;BME280;41637;52.364;9.910;2023-08-31T18:14:02;100345.72;;;17.55;61.35
55733;BME280;41637;52.364;9.910;2023-08-31T18:16:30;100348.66;;;17.23;62.32
55733;BME280;41637;52.364;9.910;2023-08-31T18:18:57;100354.13;;;16.98;63.68
55733;BME280;41637;52.364;9.910;2023-08-31T18:21:24;100355.41;;;16.77;64.51
55733;BME280;41637;52.364;9.910;2023-08-31T18:23:51;100361.66;;;16.52;65.55
55733;BME280;41637;52.364;9.910;2023-08-31T18:26:18;100365.09;;;16.34;66.61
55733;BME280;41637;52.364;9.910;2023-08-31T18:28:45;100361.16;;;16.18;67.50
55733;BME280;41637;52.364;9.910;2023-08-31T18:31:12;100372.78;;;16.05;67.82
55733;BME280;41637;52.364;9.910;2023-08-31T18:33:38;100371.25;;;15.91;69.04
55733;BME280;41637;52.364;9.910;2023-08-31T18:36:05;100373.00;;;15.79;69.68
55733;BME280;41637;52.364;9.910;2023-08-31T18:38:32;100375.53;;;15.67;69.67
55733;BME280;41637;52.364;9.910;2023-08-31T18:40:59;100383.81;;;15.59;70.41
55733;BME280;41637;52.364;9.910;2023-08-31T18:43:28;100383.44;;;15.48;71.29
55733;BME280;41637;52.364;9.910;2023-08-31T18:45:55;100386.63;;;15.39;71.70
55733;BME280;41637;52.364;9.910;2023-08-31T18:48:22;100395.25;;;15.34;71.86
55733;BME280;41637;52.364;9.910;2023-08-31T18:50:59;100395.53;;;15.26;72.88
55733;BME280;41637;52.364;9.910;2023-08-31T18:53:26;100391.44;;;15.17;73.34
55733;BME280;41637;52.364;9.910;2023-08-31T18:56:00;100394.56;;;15.07;73.60
55733;BME280;41637;52.364;9.910;2023-08-31T18:58:28;100402.81;;;14.99;74.17
55733;BME280;41637;52.364;9.910;2023-08-31T19:00:59;100403.84;;;14.91;74.33
55733;BME280;41637;52.364;9.910;2023-08-31T19:03:28;100402.25;;;14.83;74.96
55733;BME280;41637;52.364;9.910;2023-08-31T19:05:56;100405.16;;;14.75;75.63
55733;BME280;41637;52.364;9.910;2023-08-31T19:08:22;100408.84;;;14.67;76.46
55733;BME280;41637;52.364;9.910;2023-08-31T19:10:49;100403.34;;;14.62;76.80
55733;BME280;41637;52.364;9.910;2023-08-31T19:13:17;100405.78;;;14.57;77.54
55733;BME280;41637;52.364;9.910;2023-08-31T19:15:43;100409.25;;;14.51;77.85
55733;BME280;41637;52.364;9.910;2023-08-31T19:18:10;100418.72;;;14.47;78.47
55733;BME280;41637;52.364;9.910;2023-08-31T19:20:38;100413.78;;;14.44;78.64
55733;BME280;41637;52.364;9.910;2023-08-31T19:23:05;100417.91;;;14.40;78.89
55733;BME280;41637;52.364;9.910;2023-08-31T19:25:33;100418.34;;;14.37;79.22
55733;BME280;41637;52.364;9.910;2023-08-31T19:30:27;100422.84;;;14.30;79.47
55733;BME280;41637;52.364;9.910;2023-08-31T19:32:56;100419.53;;;14.27;79.46
55733;BME280;41637;52.364;9.910;2023-08-31T19:35:23;100427.34;;;14.22;80.23
55733;BME280;41637;52.364;9.910;2023-08-31T19:37:55;100439.28;;;14.20;80.28
55733;BME280;41637;52.364;9.910;2023-08-31T19:40:22;100429.19;;;14.15;80.59
55733;BME280;41637;52.364;9.910;2023-08-31T19:42:50;100429.41;;;14.14;81.12
55733;BME280;41637;52.364;9.910;2023-08-31T19:45:17;100430.03;;;14.09;81.15
55733;BME280;41637;52.364;9.910;2023-08-31T19:47:45;100435.94;;;14.04;81.56
55733;BME280;41637;52.364;9.910;2023-08-31T19:50:15;100433.72;;;14.01;81.67
55733;BME280;41637;52.364;9.910;2023-08-31T19:52:42;100433.09;;;13.99;81.85
55733;BME280;41637;52.364;9.910;2023-08-31T19:55:12;100450.72;;;13.94;82.16
55733;BME280;41637;52.364;9.910;2023-08-31T19:57:39;100448.66;;;13.89;82.44
55733;BME280;41637;52.364;9.910;2023-08-31T20:00:07;100450.31;;;13.83;83.43
55733;BME280;41637;52.364;9.910;2023-08-31T20:02:43;100451.13;;;13.77;83.57
55733;BME280;41637;52.364;9.910;2023-08-31T20:05:10;100446.59;;;13.71;85.18
55733;BME280;41637;52.364;9.910;2023-08-31T20:07:37;100450.69;;;13.67;85.40
55733;BME280;41637;52.364;9.910;2023-08-31T20:10:04;100444.50;;;13.60;86.57
55733;BME280;41637;52.364;9.910;2023-08-31T20:12:31;100447.56;;;13.57;88.25
55733;BME280;41637;52.364;9.910;2023-08-31T20:14:58;100454.31;;;13.53;88.82
55733;BME280;41637;52.364;9.910;2023-08-31T20:17:24;100466.41;;;13.49;89.35
55733;BME280;41637;52.364;9.910;2023-08-31T20:19:51;100461.25;;;13.47;89.12
55733;BME280;41637;52.364;9.910;2023-08-31T20:22:22;100458.19;;;13.43;90.03
55733;BME280;41637;52.364;9.910;2023-08-31T20:24:49;100462.91;;;13.41;90.22
55733;BME280;41637;52.364;9.910;2023-08-31T20:27:16;100461.66;;;13.37;91.34
55733;BME280;41637;52.364;9.910;2023-08-31T20:29:43;100473.53;;;13.35;92.16
55733;BME280;41637;52.364;9.910;2023-08-31T20:32:09;100466.72;;;13.32;92.88
55733;BME280;41637;52.364;9.910;2023-08-31T20:34:36;100464.06;;;13.32;92.25
55733;BME280;41637;52.364;9.910;2023-08-31T20:37:03;100471.06;;;13.33;91.82
55733;BME280;41637;52.364;9.910;2023-08-31T20:39:32;100468.59;;;13.32;91.87
55733;BME280;41637;52.364;9.910;2023-08-31T20:42:00;100469.81;;;13.29;92.50
55733;BME280;41637;52.364;9.910;2023-08-31T20:44:27;100468.13;;;13.28;93.05
55733;BME280;41637;52.364;9.910;2023-08-31T20:46:54;100473.84;;;13.25;93.35
55733;BME280;41637;52.364;9.910;2023-08-31T20:49:24;100482.88;;;13.24;93.78
55733;BME280;41637;52.364;9.910;2023-08-31T20:51:51;100480.41;;;13.22;94.07
55733;BME280;41637;52.364;9.910;2023-08-31T20:54:20;100478.13;;;13.19;94.83
55733;BME280;41637;52.364;9.910;2023-08-31T20:56:47;100472.78;;;13.19;94.75
55733;BME280;41637;52.364;9.910;2023-08-31T20:59:13;100468.50;;;13.18;94.45
55733;BME280;41637;52.364;9.910;2023-08-31T21:01:40;100469.50;;;13.17;94.90
55733;BME280;41637;52.364;9.910;2023-08-31T21:04:07;100467.06;;;13.16;94.51
55733;BME280;41637;52.364;9.910;2023-08-31T21:06:34;100475.44;;;13.13;95.68
55733;BME280;41637;52.364;9.910;2023-08-31T21:09:02;100476.47;;;13.12;95.92
55733;BME280;41637;52.364;9.910;2023-08-31T21:11:30;100477.47;;;13.11;95.83
55733;BME280;41637;52.364;9.910;2023-08-31T21:13:57;100477.69;;;13.09;95.44
55733;BME280;41637;52.364;9.910;2023-08-31T21:16:24;100476.22;;;13.06;95.84
55733;BME280;41637;52.364;9.910;2023-08-31T21:18:52;100479.91;;;13.05;95.81
55733;BME280;41637;52.364;9.910;2023-08-31T21:21:19;100483.97;;;13.01;96.16
55733;BME280;41637;52.364;9.910;2023-08-31T21:23:46;100476.38;;;12.98;96.46
55733;BME280;41637;52.364;9.910;2023-08-31T21:26:13;100485.56;;;12.96;97.09
55733;BME280;41637;52.364;9.910;2023-08-31T21:28:39;100482.28;;;12.94;97.55
55733;BME280;41637;52.364;9.910;2023-08-31T21:31:07;100484.31;;;12.92;97.41
55733;BME280;41637;52.364;9.910;2023-08-31T21:33:33;100487.19;;;12.90;97.88
55733;BME280;41637;52.364;9.910;2023-08-31T21:36:00;100483.91;;;12.88;97.47
55733;BME280;41637;52.364;9.910;2023-08-31T21:38:29;100492.91;;;12.87;97.74
55733;BME280;41637;52.364;9.910;2023-08-31T21:40:56;100487.13;;;12.83;98.59
55733;BME280;41637;52.364;9.910;2023-08-31T21:43:22;100481.00;;;12.83;98.64
55733;BME280;41637;52.364;9.910;2023-08-31T21:45:49;100481.38;;;12.80;98.66
55733;BME280;41637;52.364;9.910;2023-08-31T21:48:16;100492.03;;;12.80;98.37
55733;BME280;41637;52.364;9.910;2023-08-31T21:50:43;100492.63;;;12.75;98.75
55733;BME280;41637;52.364;9.910;2023-08-31T21:53:10;100492.81;;;12.74;98.49
55733;BME280;41637;52.364;9.910;2023-08-31T21:55:36;100487.84;;;12.71;98.83
55733;BME280;41637;52.364;9.910;2023-08-31T21:58:03;100489.91;;;12.69;98.93
55733;BME280;41637;52.364;9.910;2023-08-31T22:00:30;100482.94;;;12.68;98.98
55733;BME280;41637;52.364;9.910;2023-08-31T22:02:57;100486.00;;;12.64;99.88
55733;BME280;41637;52.364;9.910;2023-08-31T22:05:25;100499.31;;;12.64;99.53
55733;BME280;41637;52.364;9.910;2023-08-31T22:07:55;100494.97;;;12.63;99.70
55733;BME280;41637;52.364;9.910;2023-08-31T22:10:24;100494.34;;;12.61;99.66
55733;BME280;41637;52.364;9.910;2023-08-31T22:12:52;100496.38;;;12.59;99.68
55733;BME280;41637;52.364;9.910;2023-08-31T22:15:20;100493.91;;;12.58;99.79
55733;BME280;41637;52.364;9.910;2023-08-31T22:17:49;100495.13;;;12.55;100.00
55733;BME280;41637;52.364;9.910;2023-08-31T22:20:19;100490.63;;;12.56;100.00
55733;BME280;41637;52.364;9.910;2023-08-31T22:22:48;100499.22;;;12.58;100.00
55733;BME280;41637;52.364;9.910;2023-08-31T22:25:24;100496.00;;;12.62;100.00
55733;BME280;41637;52.364;9.910;2023-08-31T22:27:56;100502.59;;;12.67;100.00
55733;BME280;41637;52.364;9.910;2023-08-31T22:30:25;100500.16;;;12.72;100.00
55733;BME280;41637;52.364;9.910;2023-08-31T22:32:55;100509.00;;;12.79;100.00
55733;BME280;41637;52.364;9.910;2023-08-31T22:35:22;100508.44;;;12.83;100.00
55733;BME280;41637;52.364;9.910;2023-08-31T22:37:51;100506.19;;;12.87;100.00
55733;BME280;41637;52.364;9.910;2023-08-31T22:40:18;100509.31;;;12.91;99.78
55733;BME280;41637;52.364;9.910;2023-08-31T22:42:44;100508.28;;;12.92;99.28
55733;BME280;41637;52.364;9.910;2023-08-31T22:45:12;100510.13;;;12.91;99.64
55733;BME280;41637;52.364;9.910;2023-08-31T22:47:39;100513.41;;;12.93;99.25
55733;BME280;41637;52.364;9.910;2023-08-31T22:50:06;100515.44;;;12.91;99.42